Time;durP1;ratioP1;P1;durP2;ratioP2;P2;SDS_P1;SDS_P2;PMS_P1;PMS_P2;Temp;Humidity;BMP_temperature;BMP_pressure;BME280_temperature;BME280_humidity;BME280_pressure;Samples;Min_cycle;Max_cycle;Signal;HPM_P1;HPM_P2
2023/01/07 00:01:28;;;;;;;20.23;17.35;;;;;;;;;;4988605;28;20230;-69
2023/01/07 00:03:54;;;;;;;25.13;18.10;;;;;;;;;;5005048;28;20198;-69
2023/01/07 00:06:26;;;;;;;25.42;18.65;;;;;;;;;;4994318;28;20278;-69
2023/01/07 00:08:55;;;;;;;24.90;18.13;;;;;;;;;;5000147;28;20218;-69
2023/01/07 00:11:24;;;;;;;22.42;17.33;;;;;;;;;;5017727;28;20226;-69
2023/01/07 00:13:51;;;;;;;20.63;17.05;;;;;;;;;;5001089;28;20195;-69
2023/01/07 00:16:21;;;;;;;21.38;17.38;;;;;;;;;;4993644;28;20252;-69
2023/01/07 00:18:47;;;;;;;24.63;17.98;;;;;;;;;;4995601;28;20203;-69
2023/01/07 00:21:15;;;;;;;20.35;16.40;;;;;;;;;;4994855;28;20349;-69
2023/01/07 00:23:41;;;;;;;21.05;16.65;;;;;;;;;;4989388;28;20230;-69
2023/01/07 00:26:11;;;;;;;21.00;16.83;;;;;;;;;;4993594;28;20198;-69
2023/01/07 00:28:39;;;;;;;20.00;17.45;;;;;;;;;;4998741;28;20243;-69
2023/01/07 00:31:10;;;;;;;25.15;18.30;;;;;;;;;;5001833;28;20190;-69
2023/01/07 00:33:35;;;;;;;20.83;16.80;;;;;;;;;;4999332;28;20654;-69
2023/01/07 00:36:08;;;;;;;22.08;17.10;;;;;;;;;;4982678;28;20195;-69
2023/01/07 00:38:35;;;;;;;22.00;15.90;;;;;;;;;;5001874;28;20560;-69
2023/01/07 00:41:00;;;;;;;22.10;16.50;;;;;;;;;;5001462;28;20211;-70
2023/01/07 00:43:26;;;;;;;23.27;16.90;;;;;;;;;;4988206;28;20650;-71
2023/01/07 00:45:52;;;;;;;25.88;17.10;;;;;;;;;;4990582;28;20191;-71
2023/01/07 00:48:18;;;;;;;19.30;16.08;;;;;;;;;;4976579;28;20203;-71
2023/01/07 00:50:46;;;;;;;21.17;16.65;;;;;;;;;;4990837;28;20195;-70
2023/01/07 00:53:11;;;;;;;21.83;17.35;;;;;;;;;;4988908;28;20635;-71
2023/01/07 00:55:37;;;;;;;22.77;17.13;;;;;;;;;;4988807;28;20191;-71
2023/01/07 00:58:03;;;;;;;20.83;16.60;;;;;;;;;;4992714;28;20187;-70
2023/01/07 01:00:29;;;;;;;21.55;16.10;;;;;;;;;;4990239;28;20658;-71
2023/01/07 01:02:54;;;;;;;24.02;16.35;;;;;;;;;;4983058;28;20198;-69
2023/01/07 01:05:20;;;;;;;18.85;15.23;;;;;;;;;;4988710;28;20192;-70
2023/01/07 01:07:45;;;;;;;24.48;17.00;;;;;;;;;;4984979;28;20199;-70
2023/01/07 01:10:15;;;;;;;18.73;14.68;;;;;;;;;;4974462;28;20218;-68
2023/01/07 01:12:41;;;;;;;21.45;15.73;;;;;;;;;;4985995;28;20188;-69
2023/01/07 01:15:10;;;;;;;21.08;16.58;;;;;;;;;;4989431;28;20245;-68
2023/01/07 01:17:35;;;;;;;22.05;16.50;;;;;;;;;;4994337;28;20260;-68
2023/01/07 01:20:01;;;;;;;19.38;16.35;;;;;;;;;;4994892;28;20207;-68
2023/01/07 01:22:27;;;;;;;19.88;15.07;;;;;;;;;;4981842;28;20249;-67
2023/01/07 01:24:52;;;;;;;23.13;15.63;;;;;;;;;;4976289;28;20240;-68
2023/01/07 01:27:19;;;;;;;23.02;16.60;;;;;;;;;;4982384;28;20230;-68
2023/01/07 01:29:44;;;;;;;22.65;16.67;;;;;;;;;;4987133;28;20215;-68
2023/01/07 01:32:09;;;;;;;22.50;15.48;;;;;;;;;;4979881;28;20227;-68
2023/01/07 01:34:35;;;;;;;21.00;15.60;;;;;;;;;;4985813;28;20230;-69
2023/01/07 01:37:00;;;;;;;19.58;15.40;;;;;;;;;;4977360;28;20192;-70
2023/01/07 01:39:25;;;;;;;22.15;15.98;;;;;;;;;;4990700;28;20215;-69
2023/01/07 01:41:51;;;;;;;21.48;15.52;;;;;;;;;;4983166;28;20369;-68
2023/01/07 01:44:35;;;;;;;19.25;14.73;;;;;;;;;;4985519;28;20191;-68
2023/01/07 01:47:04;;;;;;;20.35;15.10;;;;;;;;;;4989127;28;20214;-69
2023/01/07 01:49:34;;;;;;;23.40;15.80;;;;;;;;;;4992107;28;20266;-68
2023/01/07 01:52:21;;;;;;;21.05;14.63;;;;;;;;;;4983627;28;20203;-68
2023/01/07 01:54:52;;;;;;;21.83;15.40;;;;;;;;;;4987366;28;20184;-69
2023/01/07 01:57:20;;;;;;;20.50;15.57;;;;;;;;;;4981533;28;20187;-68
2023/01/07 01:59:49;;;;;;;19.80;14.68;;;;;;;;;;4984212;28;20243;-68
2023/01/07 02:02:18;;;;;;;19.65;15.18;;;;;;;;;;4983203;28;20585;-68
2023/01/07 02:04:44;;;;;;;25.88;15.07;;;;;;;;;;4978847;28;20258;-70
2023/01/07 02:07:14;;;;;;;21.02;14.55;;;;;;;;;;4986579;28;20187;-69
2023/01/07 02:09:40;;;;;;;22.52;14.80;;;;;;;;;;4987457;28;20211;-69
2023/01/07 02:12:35;;;;;;;18.85;14.65;;;;;;;;;;4987748;28;20242;-68
2023/01/07 02:15:12;;;;;;;20.25;14.50;;;;;;;;;;4987688;28;20587;-68
2023/01/07 02:18:07;;;;;;;19.98;14.32;;;;;;;;;;4986788;28;20206;-68
2023/01/07 02:20:49;;;;;;;21.35;14.00;;;;;;;;;;4985297;28;20255;-68
2023/01/07 02:23:36;;;;;;;20.58;13.68;;;;;;;;;;4979907;28;20200;-68
2023/01/07 02:26:40;;;;;;;20.63;14.02;;;;;;;;;;4979644;28;20267;-69
2023/01/07 02:29:29;;;;;;;19.55;13.35;;;;;;;;;;4982882;28;20570;-68
2023/01/07 02:32:10;;;;;;;20.05;13.60;;;;;;;;;;4983453;28;20270;-68
2023/01/07 02:34:45;;;;;;;17.83;12.88;;;;;;;;;;4981141;28;20235;-68
2023/01/07 02:37:19;;;;;;;19.33;13.43;;;;;;;;;;4978985;28;20191;-68
2023/01/07 02:40:09;;;;;;;18.23;13.25;;;;;;;;;;4984198;28;20672;-68
2023/01/07 02:43:05;;;;;;;17.20;13.48;;;;;;;;;;4980542;28;20192;-68
2023/01/07 02:45:37;;;;;;;17.17;12.63;;;;;;;;;;4985242;28;20322;-68
2023/01/07 02:48:12;;;;;;;18.67;12.80;;;;;;;;;;4979758;28;20199;-68
2023/01/07 02:50:37;;;;;;;14.80;11.32;;;;;;;;;;4984185;28;20565;-68
2023/01/07 02:53:05;;;;;;;16.70;12.00;;;;;;;;;;4974991;28;20188;-68
2023/01/07 02:55:46;;;;;;;15.27;11.50;;;;;;;;;;4984344;28;20273;-68
2023/01/07 02:58:23;;;;;;;14.23;10.75;;;;;;;;;;4983439;28;20737;-68
2023/01/07 03:01:24;;;;;;;15.98;11.50;;;;;;;;;;4976405;28;20235;-68
2023/01/07 03:04:11;;;;;;;13.02;10.85;;;;;;;;;;4982840;28;20268;-68
2023/01/07 03:06:45;;;;;;;16.10;10.55;;;;;;;;;;4988326;28;20541;-68
2023/01/07 03:09:40;;;;;;;15.27;10.27;;;;;;;;;;4984239;28;20273;-68
2023/01/07 03:12:38;;;;;;;11.55;8.82;;;;;;;;;;4984435;28;20191;-70
2023/01/07 03:15:12;;;;;;;14.35;9.55;;;;;;;;;;4984852;28;20187;-68
2023/01/07 03:17:49;;;;;;;11.93;9.02;;;;;;;;;;4986712;28;20304;-68
2023/01/07 03:20:15;;;;;;;13.65;9.73;;;;;;;;;;4979154;28;20704;-68
2023/01/07 03:22:43;;;;;;;18.08;10.45;;;;;;;;;;4984511;28;20677;-68
2023/01/07 03:25:12;;;;;;;14.88;9.10;;;;;;;;;;4977450;28;20261;-67
2023/01/07 03:27:40;;;;;;;13.13;8.60;;;;;;;;;;4981883;28;20214;-68
2023/01/07 03:30:11;;;;;;;11.75;8.85;;;;;;;;;;4987635;28;20187;-68
2023/01/07 03:32:53;;;;;;;11.85;9.27;;;;;;;;;;4986906;28;20206;-68
2023/01/07 03:35:20;;;;;;;13.52;8.57;;;;;;;;;;4975219;28;20253;-68
2023/01/07 03:37:47;;;;;;;14.15;9.75;;;;;;;;;;4982420;28;20199;-68
2023/01/07 03:40:12;;;;;;;10.10;8.45;;;;;;;;;;4986627;28;20574;-68
2023/01/07 03:42:40;;;;;;;14.68;9.25;;;;;;;;;;4979988;28;20208;-68
2023/01/07 03:45:12;;;;;;;13.98;9.43;;;;;;;;;;4982252;28;20232;-68
2023/01/07 03:47:42;;;;;;;12.95;8.73;;;;;;;;;;4987605;28;20198;-68
2023/01/07 03:50:09;;;;;;;10.30;8.35;;;;;;;;;;4984261;28;20219;-68
2023/01/07 03:52:34;;;;;;;13.13;8.48;;;;;;;;;;4984747;28;20198;-68
2023/01/07 03:55:00;;;;;;;11.93;9.18;;;;;;;;;;4981489;28;20187;-68
2023/01/07 03:57:25;;;;;;;10.30;9.20;;;;;;;;;;4985121;28;20918;-68
2023/01/07 03:59:50;;;;;;;13.05;8.27;;;;;;;;;;4976705;28;20659;-68
2023/01/07 04:02:16;;;;;;;12.02;8.43;;;;;;;;;;4983711;28;20276;-68
2023/01/07 04:04:41;;;;;;;11.65;8.93;;;;;;;;;;4988314;28;20264;-68
2023/01/07 04:07:07;;;;;;;13.23;9.40;;;;;;;;;;4984126;28;20261;-68
2023/01/07 04:09:32;;;;;;;13.38;9.32;;;;;;;;;;4987429;28;20188;-68
2023/01/07 04:11:57;;;;;;;12.65;8.45;;;;;;;;;;4987021;28;20223;-68
2023/01/07 04:14:23;;;;;;;15.30;9.90;;;;;;;;;;4974937;28;20306;-68
2023/01/07 04:16:50;;;;;;;14.65;8.60;;;;;;;;;;4968693;28;20643;-68
2023/01/07 04:19:16;;;;;;;14.77;8.98;;;;;;;;;;4980233;28;20195;-67
2023/01/07 04:21:41;;;;;;;12.68;9.23;;;;;;;;;;4978303;28;20722;-68
2023/01/07 04:24:07;;;;;;;9.73;7.88;;;;;;;;;;4984857;28;20308;-68
2023/01/07 04:26:32;;;;;;;11.32;8.20;;;;;;;;;;4987076;28;20416;-68
2023/01/07 04:28:58;;;;;;;13.25;8.98;;;;;;;;;;4984638;28;20663;-68
2023/01/07 04:31:23;;;;;;;14.90;8.52;;;;;;;;;;4973976;28;20190;-67
2023/01/07 04:33:48;;;;;;;16.33;8.65;;;;;;;;;;4983459;28;20198;-68
2023/01/07 04:36:14;;;;;;;14.15;8.85;;;;;;;;;;4984750;28;20200;-68
2023/01/07 04:38:39;;;;;;;13.45;8.35;;;;;;;;;;4986489;28;20226;-67
2023/01/07 04:41:05;;;;;;;15.52;8.48;;;;;;;;;;4990752;28;20230;-68
2023/01/07 04:43:31;;;;;;;16.30;8.52;;;;;;;;;;4986334;28;20203;-68
2023/01/07 04:45:56;;;;;;;11.45;8.07;;;;;;;;;;4986422;28;20196;-68
2023/01/07 04:48:21;;;;;;;11.18;7.28;;;;;;;;;;4982463;28;20628;-67
2023/01/07 04:50:47;;;;;;;12.45;7.95;;;;;;;;;;4986366;28;20278;-67
2023/01/07 04:53:13;;;;;;;11.38;7.28;;;;;;;;;;4984297;28;20200;-67
2023/01/07 04:55:38;;;;;;;9.32;7.03;;;;;;;;;;4990085;28;20192;-67
2023/01/07 04:58:03;;;;;;;13.65;7.50;;;;;;;;;;4984951;28;20267;-68
2023/01/07 05:00:29;;;;;;;12.27;7.65;;;;;;;;;;4988492;28;20231;-68
2023/01/07 05:02:54;;;;;;;10.50;7.28;;;;;;;;;;4984711;28;20287;-68
2023/01/07 05:05:20;;;;;;;9.88;7.57;;;;;;;;;;4997466;28;20183;-67
2023/01/07 05:07:45;;;;;;;12.10;7.10;;;;;;;;;;4999517;28;20183;-67
2023/01/07 05:10:11;;;;;;;10.15;7.07;;;;;;;;;;5004464;28;20189;-67
2023/01/07 05:12:36;;;;;;;7.38;6.40;;;;;;;;;;5003040;28;20195;-68
2023/01/07 05:15:03;;;;;;;10.40;6.40;;;;;;;;;;4980921;28;20202;-68
2023/01/07 05:17:28;;;;;;;8.88;6.72;;;;;;;;;;4986894;28;20191;-68
2023/01/07 05:19:54;;;;;;;9.60;6.72;;;;;;;;;;4979312;28;20697;-67
2023/01/07 05:22:19;;;;;;;9.45;7.18;;;;;;;;;;4989911;28;20195;-67
2023/01/07 05:24:45;;;;;;;10.48;7.05;;;;;;;;;;4982192;28;20239;-67
2023/01/07 05:27:10;;;;;;;14.80;7.88;;;;;;;;;;4985621;28;20191;-67
2023/01/07 05:29:35;;;;;;;12.13;6.80;;;;;;;;;;4989473;28;20471;-68
2023/01/07 05:32:01;;;;;;;10.75;7.93;;;;;;;;;;4999201;28;20194;-68
2023/01/07 05:34:26;;;;;;;11.85;6.88;;;;;;;;;;4989773;28;20688;-68
2023/01/07 05:36:52;;;;;;;11.32;7.45;;;;;;;;;;4989005;28;20195;-67
2023/01/07 05:39:17;;;;;;;9.95;6.90;;;;;;;;;;4990958;28;20187;-67
2023/01/07 05:41:43;;;;;;;10.43;7.53;;;;;;;;;;4996740;28;20198;-68
2023/01/07 05:44:08;;;;;;;11.13;6.88;;;;;;;;;;4986995;28;20204;-68
2023/01/07 05:46:33;;;;;;;11.05;7.10;;;;;;;;;;4995000;28;20276;-67
2023/01/07 05:48:59;;;;;;;10.48;7.10;;;;;;;;;;4994840;28;20192;-67
2023/01/07 05:51:24;;;;;;;15.38;7.53;;;;;;;;;;4998787;28;20660;-67
2023/01/07 05:53:49;;;;;;;8.10;6.70;;;;;;;;;;4989997;28;20195;-68
2023/01/07 05:56:15;;;;;;;13.27;6.43;;;;;;;;;;5000395;28;20529;-72
2023/01/07 05:58:40;;;;;;;10.02;6.68;;;;;;;;;;4998539;28;20202;-68
2023/01/07 06:01:05;;;;;;;8.85;6.93;;;;;;;;;;4996205;28;20225;-68
2023/01/07 06:03:31;;;;;;;11.50;7.45;;;;;;;;;;4996616;28;20427;-67
2023/01/07 06:05:56;;;;;;;10.73;6.90;;;;;;;;;;4996597;28;20196;-67
2023/01/07 06:08:22;;;;;;;9.65;7.15;;;;;;;;;;4990571;28;20195;-68
2023/01/07 06:10:47;;;;;;;9.25;6.80;;;;;;;;;;4989336;28;20192;-68
2023/01/07 06:13:13;;;;;;;10.77;6.78;;;;;;;;;;4988611;28;20215;-68
2023/01/07 06:15:38;;;;;;;6.82;6.00;;;;;;;;;;4985934;28;20214;-68
2023/01/07 06:18:03;;;;;;;13.98;7.30;;;;;;;;;;4989120;28;20191;-67
2023/01/07 06:20:33;;;;;;;8.93;6.32;;;;;;;;;;4985566;28;20646;-68
2023/01/07 06:22:59;;;;;;;8.93;6.60;;;;;;;;;;4987398;28;20197;-67
2023/01/07 06:25:24;;;;;;;10.70;6.55;;;;;;;;;;4980646;28;20440;-67
2023/01/07 06:27:50;;;;;;;9.02;6.53;;;;;;;;;;4991180;28;20214;-68
2023/01/07 06:30:15;;;;;;;7.35;5.80;;;;;;;;;;4992197;28;20248;-67
2023/01/07 06:32:42;;;;;;;7.65;6.03;;;;;;;;;;5002381;28;20225;-66
2023/01/07 06:35:09;;;;;;;9.88;6.10;;;;;;;;;;4995283;28;20197;-67
2023/01/07 06:37:35;;;;;;;10.18;5.80;;;;;;;;;;4992098;28;20234;-67
2023/01/07 06:40:01;;;;;;;7.53;5.50;;;;;;;;;;4987177;28;20219;-67
2023/01/07 06:42:26;;;;;;;10.20;6.53;;;;;;;;;;4984616;28;20195;-67
2023/01/07 06:44:51;;;;;;;7.22;5.57;;;;;;;;;;4987499;28;20196;-67
2023/01/07 06:47:17;;;;;;;9.82;5.70;;;;;;;;;;4985015;28;20274;-67
2023/01/07 06:49:42;;;;;;;10.10;5.80;;;;;;;;;;4984992;28;20203;-67
2023/01/07 06:52:07;;;;;;;12.02;5.93;;;;;;;;;;4993424;28;20207;-67
2023/01/07 06:54:33;;;;;;;10.32;5.57;;;;;;;;;;4998060;28;20195;-67
2023/01/07 06:56:58;;;;;;;7.72;5.72;;;;;;;;;;4996868;28;20195;-68
2023/01/07 06:59:23;;;;;;;7.40;5.40;;;;;;;;;;4984899;28;20629;-68
2023/01/07 07:01:49;;;;;;;8.55;5.35;;;;;;;;;;4987132;28;20199;-68
2023/01/07 07:04:14;;;;;;;8.52;5.57;;;;;;;;;;4987101;28;20187;-68
2023/01/07 07:06:40;;;;;;;8.82;5.85;;;;;;;;;;4982569;28;20196;-69
2023/01/07 07:09:05;;;;;;;7.78;5.40;;;;;;;;;;4984106;28;20632;-69
2023/01/07 07:11:30;;;;;;;7.72;6.40;;;;;;;;;;4992285;28;20210;-66
2023/01/07 07:13:56;;;;;;;8.98;5.85;;;;;;;;;;4983597;28;20203;-67
2023/01/07 07:16:22;;;;;;;9.02;6.03;;;;;;;;;;4986476;28;20273;-68
2023/01/07 07:18:48;;;;;;;6.47;5.40;;;;;;;;;;4982197;28;20196;-67
2023/01/07 07:21:13;;;;;;;8.13;5.03;;;;;;;;;;4980687;28;20211;-66
2023/01/07 07:23:39;;;;;;;8.68;5.22;;;;;;;;;;4981308;28;20778;-66
2023/01/07 07:26:04;;;;;;;8.90;5.78;;;;;;;;;;4980419;28;20203;-67
2023/01/07 07:28:30;;;;;;;6.70;5.18;;;;;;;;;;4984825;28;20227;-68
2023/01/07 07:30:55;;;;;;;9.10;5.30;;;;;;;;;;4984917;28;20266;-67
2023/01/07 07:33:20;;;;;;;8.55;5.85;;;;;;;;;;4987247;28;20663;-67
2023/01/07 07:35:47;;;;;;;7.95;5.07;;;;;;;;;;4987047;28;20195;-67
2023/01/07 07:38:13;;;;;;;7.88;5.32;;;;;;;;;;4981917;28;20711;-67
2023/01/07 07:40:38;;;;;;;9.52;4.72;;;;;;;;;;4985878;28;20408;-67
2023/01/07 07:43:03;;;;;;;5.95;4.82;;;;;;;;;;4979076;28;20283;-67
2023/01/07 07:45:29;;;;;;;6.25;4.20;;;;;;;;;;4981243;28;20191;-68
2023/01/07 07:47:54;;;;;;;6.55;4.85;;;;;;;;;;4986239;28;20189;-68
2023/01/07 07:50:19;;;;;;;6.15;4.88;;;;;;;;;;4974234;28;20184;-68
2023/01/07 07:52:45;;;;;;;7.55;4.80;;;;;;;;;;4981685;28;20223;-68
2023/01/07 07:55:10;;;;;;;9.70;4.28;;;;;;;;;;4970509;28;20192;-68
2023/01/07 07:57:36;;;;;;;6.35;4.90;;;;;;;;;;4983237;28;20226;-68
2023/01/07 08:00:02;;;;;;;5.28;4.32;;;;;;;;;;4983959;28;20211;-68
2023/01/07 08:02:27;;;;;;;9.80;5.00;;;;;;;;;;4983227;28;20211;-68
2023/01/07 08:04:52;;;;;;;8.15;4.90;;;;;;;;;;4969614;28;20188;-68
2023/01/07 08:07:18;;;;;;;4.45;3.72;;;;;;;;;;4975462;28;20275;-68
2023/01/07 08:09:43;;;;;;;7.10;4.65;;;;;;;;;;4982490;28;21034;-68
2023/01/07 08:12:08;;;;;;;5.00;4.40;;;;;;;;;;4983897;28;20199;-68
2023/01/07 08:14:35;;;;;;;5.57;3.78;;;;;;;;;;4988279;28;20235;-67
2023/01/07 08:17:00;;;;;;;5.78;4.47;;;;;;;;;;4991316;28;20211;-68
2023/01/07 08:19:26;;;;;;;8.00;3.75;;;;;;;;;;4987904;28;20290;-67
2023/01/07 08:21:51;;;;;;;6.15;3.90;;;;;;;;;;4987700;28;20279;-67
2023/01/07 08:24:16;;;;;;;5.22;3.67;;;;;;;;;;4987916;28;20231;-67
2023/01/07 08:26:42;;;;;;;4.55;3.70;;;;;;;;;;4990830;28;20214;-67
2023/01/07 08:29:07;;;;;;;4.68;3.25;;;;;;;;;;4992102;28;20534;-67
2023/01/07 08:31:33;;;;;;;4.38;3.35;;;;;;;;;;4990033;28;20679;-67
2023/01/07 08:33:58;;;;;;;4.15;3.25;;;;;;;;;;4991090;28;20262;-67
2023/01/07 08:36:24;;;;;;;8.02;2.80;;;;;;;;;;4988249;28;20183;-67
2023/01/07 08:38:52;;;;;;;4.97;3.17;;;;;;;;;;4984410;28;20204;-67
2023/01/07 08:41:20;;;;;;;4.18;3.10;;;;;;;;;;4989240;28;20234;-67
2023/01/07 08:43:45;;;;;;;3.58;2.75;;;;;;;;;;4985229;28;20611;-67
2023/01/07 08:46:11;;;;;;;3.20;2.45;;;;;;;;;;4993345;28;20278;-67
2023/01/07 08:48:38;;;;;;;7.28;3.05;;;;;;;;;;4988365;28;20191;-67
2023/01/07 08:51:05;;;;;;;3.17;2.50;;;;;;;;;;4986742;28;20187;-67
2023/01/07 08:53:30;;;;;;;4.10;2.88;;;;;;;;;;4989684;28;20274;-67
2023/01/07 08:55:55;;;;;;;2.78;2.47;;;;;;;;;;4985075;28;20275;-68
2023/01/07 08:58:21;;;;;;;2.38;2.10;;;;;;;;;;4993803;28;20199;-68
2023/01/07 09:00:46;;;;;;;3.55;2.38;;;;;;;;;;4985792;28;20310;-68
2023/01/07 09:03:13;;;;;;;2.67;2.15;;;;;;;;;;4986556;28;20274;-68
2023/01/07 09:05:38;;;;;;;2.88;2.33;;;;;;;;;;4979039;28;20196;-68
2023/01/07 09:08:04;;;;;;;3.10;2.10;;;;;;;;;;4991270;28;20650;-67
2023/01/07 09:10:30;;;;;;;4.65;2.17;;;;;;;;;;4991640;28;20199;-67
2023/01/07 09:12:55;;;;;;;5.43;2.00;;;;;;;;;;4985970;28;20321;-67
2023/01/07 09:15:20;;;;;;;2.47;1.80;;;;;;;;;;4983963;28;20306;-67
2023/01/07 09:17:46;;;;;;;5.97;2.30;;;;;;;;;;5000319;28;20250;-67
2023/01/07 09:20:11;;;;;;;2.58;1.83;;;;;;;;;;4636251;28;9999704;-67
2023/01/07 09:22:37;;;;;;;3.33;1.90;;;;;;;;;;4990416;28;20191;-67
2023/01/07 09:25:04;;;;;;;2.70;2.05;;;;;;;;;;4982762;28;20228;-68
2023/01/07 09:27:30;;;;;;;3.50;2.10;;;;;;;;;;4977577;28;20218;-68
2023/01/07 09:29:57;;;;;;;3.35;2.10;;;;;;;;;;4981299;28;20686;-67
2023/01/07 09:32:27;;;;;;;2.63;1.63;;;;;;;;;;4981180;28;20191;-67
2023/01/07 09:34:54;;;;;;;2.72;1.77;;;;;;;;;;4987448;28;20195;-67
2023/01/07 09:37:19;;;;;;;2.90;1.60;;;;;;;;;;4977821;28;20644;-67
2023/01/07 09:39:44;;;;;;;4.00;1.60;;;;;;;;;;4990945;28;20223;-67
2023/01/07 09:42:41;;;;;;;6.25;1.80;;;;;;;;;;4994268;28;20273;-67
2023/01/07 09:45:15;;;;;;;2.08;1.40;;;;;;;;;;5008322;28;20254;-68
2023/01/07 09:47:54;;;;;;;2.38;1.65;;;;;;;;;;4986708;28;20211;-67
2023/01/07 09:50:38;;;;;;;4.70;1.60;;;;;;;;;;4990803;28;20558;-67
2023/01/07 09:53:10;;;;;;;2.67;1.63;;;;;;;;;;4995700;28;20238;-67
2023/01/07 09:55:40;;;;;;;4.15;1.45;;;;;;;;;;4993404;28;20256;-67
2023/01/07 09:58:12;;;;;;;2.97;1.58;;;;;;;;;;4995550;28;20219;-67
2023/01/07 10:00:56;;;;;;;3.55;1.45;;;;;;;;;;4993781;28;20324;-67
2023/01/07 10:03:35;;;;;;;2.80;1.60;;;;;;;;;;4983609;28;20522;-66
2023/01/07 10:06:17;;;;;;;2.10;1.70;;;;;;;;;;4988570;28;20191;-66
2023/01/07 10:09:14;;;;;;;3.05;2.10;;;;;;;;;;4986055;28;20250;-66
2023/01/07 10:12:10;;;;;;;3.70;2.00;;;;;;;;;;4987145;28;20195;-66
2023/01/07 10:14:59;;;;;;;3.83;2.33;;;;;;;;;;4987502;28;20196;-66
2023/01/07 10:17:45;;;;;;;3.92;1.90;;;;;;;;;;4988178;28;20224;-67
2023/01/07 10:20:26;;;;;;;3.30;1.92;;;;;;;;;;4992391;28;20247;-67
2023/01/07 10:23:10;;;;;;;2.95;1.70;;;;;;;;;;4747720;28;10001456;-67
2023/01/07 10:25:44;;;;;;;2.65;1.70;;;;;;;;;;4976409;28;20759;-67
2023/01/07 10:28:36;;;;;;;3.80;1.88;;;;;;;;;;4987736;28;20300;-67
2023/01/07 10:31:04;;;;;;;2.63;1.65;;;;;;;;;;4986507;28;20321;-67
2023/01/07 10:33:32;;;;;;;2.33;1.30;;;;;;;;;;4983766;28;20654;-67
2023/01/07 10:36:18;;;;;;;2.75;1.50;;;;;;;;;;4985489;28;20191;-67
2023/01/07 10:38:55;;;;;;;4.85;1.83;;;;;;;;;;4985056;28;20677;-67
2023/01/07 10:41:34;;;;;;;3.38;1.70;;;;;;;;;;4978300;28;20239;-67
2023/01/07 10:44:24;;;;;;;2.80;1.60;;;;;;;;;;4986831;28;20186;-67
2023/01/07 10:46:58;;;;;;;2.67;1.60;;;;;;;;;;4984661;28;20549;-66
2023/01/07 10:49:52;;;;;;;1.85;1.52;;;;;;;;;;4981570;28;20380;-67
2023/01/07 10:52:43;;;;;;;3.03;1.42;;;;;;;;;;4985300;28;20280;-67
2023/01/07 10:55:18;;;;;;;2.90;1.35;;;;;;;;;;4981745;28;20203;-67
2023/01/07 10:57:46;;;;;;;1.85;1.33;;;;;;;;;;4991465;28;20203;-66
2023/01/07 11:00:14;;;;;;;1.33;1.23;;;;;;;;;;4987653;28;20234;-67
2023/01/07 11:03:00;;;;;;;2.63;1.52;;;;;;;;;;4987234;28;20199;-67
2023/01/07 11:05:35;;;;;;;1.42;1.20;;;;;;;;;;4983511;28;20219;-67
2023/01/07 11:08:03;;;;;;;1.35;1.20;;;;;;;;;;4999432;28;20195;-68
2023/01/07 11:10:34;;;;;;;2.42;1.60;;;;;;;;;;4997833;28;20586;-68
2023/01/07 11:13:13;;;;;;;1.40;1.20;;;;;;;;;;4994270;28;20250;-67
2023/01/07 11:15:47;;;;;;;1.95;1.00;;;;;;;;;;4996919;28;20290;-67
2023/01/07 11:18:18;;;;;;;1.58;0.90;;;;;;;;;;4993961;28;20225;-68
2023/01/07 11:20:48;;;;;;;1.25;1.02;;;;;;;;;;4998203;28;20219;-68
2023/01/07 11:23:18;;;;;;;1.77;1.27;;;;;;;;;;5000476;28;20242;-67
2023/01/07 11:25:44;;;;;;;1.35;0.75;;;;;;;;;;4997133;28;20252;-67
2023/01/07 11:28:17;;;;;;;1.75;1.15;;;;;;;;;;5002571;28;20497;-67
2023/01/07 11:30:43;;;;;;;1.90;1.20;;;;;;;;;;4997830;28;20542;-67
2023/01/07 11:33:20;;;;;;;1.60;1.10;;;;;;;;;;4996684;28;20229;-67
2023/01/07 11:35:54;;;;;;;1.52;1.35;;;;;;;;;;4990179;28;20226;-68
2023/01/07 11:38:29;;;;;;;2.75;1.13;;;;;;;;;;4988759;28;20541;-67
2023/01/07 11:40:57;;;;;;;1.23;1.05;;;;;;;;;;4993036;28;20225;-67
2023/01/07 11:43:24;;;;;;;2.65;1.02;;;;;;;;;;4990885;28;20195;-67
2023/01/07 11:45:54;;;;;;;3.33;0.82;;;;;;;;;;4993253;28;20265;-67
2023/01/07 11:48:28;;;;;;;2.33;1.00;;;;;;;;;;4994428;28;20195;-66
2023/01/07 11:50:55;;;;;;;2.70;1.10;;;;;;;;;;5000068;28;20187;-67
2023/01/07 11:53:36;;;;;;;2.53;0.90;;;;;;;;;;5003040;28;20192;-67
2023/01/07 11:56:23;;;;;;;4.03;1.42;;;;;;;;;;5002932;28;20231;-67
2023/01/07 11:58:50;;;;;;;3.25;0.90;;;;;;;;;;4999361;28;20278;-66
2023/01/07 12:01:19;;;;;;;1.73;1.08;;;;;;;;;;4993170;28;20374;-67
2023/01/07 12:04:12;;;;;;;2.15;1.20;;;;;;;;;;4991092;28;20194;-67
2023/01/07 12:06:40;;;;;;;2.85;1.33;;;;;;;;;;4990537;28;20207;-66
2023/01/07 12:09:25;;;;;;;3.35;1.45;;;;;;;;;;4993712;28;20241;-66
2023/01/07 12:11:53;;;;;;;2.05;0.93;;;;;;;;;;4984444;28;20191;-66
2023/01/07 12:14:22;;;;;;;3.42;1.27;;;;;;;;;;4994370;28;20187;-67
2023/01/07 12:16:50;;;;;;;3.50;1.10;;;;;;;;;;4988081;28;20200;-67
2023/01/07 12:19:37;;;;;;;2.47;1.33;;;;;;;;;;4977194;28;20202;-66
2023/01/07 12:22:08;;;;;;;2.42;1.10;;;;;;;;;;4988181;28;20216;-66
2023/01/07 12:25:04;;;;;;;2.75;1.15;;;;;;;;;;4984587;28;20603;-66
2023/01/07 12:27:48;;;;;;;2.10;1.27;;;;;;;;;;4984566;28;20712;-66
2023/01/07 12:30:48;;;;;;;4.35;1.70;;;;;;;;;;4984739;28;20190;-66
2023/01/07 12:33:31;;;;;;;2.50;1.30;;;;;;;;;;4981719;28;20746;-66
2023/01/07 12:36:07;;;;;;;2.45;1.10;;;;;;;;;;4990005;28;20576;-67
2023/01/07 12:38:43;;;;;;;2.45;1.40;;;;;;;;;;5000482;28;20198;-67
2023/01/07 12:41:19;;;;;;;5.32;1.70;;;;;;;;;;4987778;28;20219;-66
2023/01/07 12:44:07;;;;;;;2.70;1.27;;;;;;;;;;4986931;28;20202;-66
2023/01/07 12:47:05;;;;;;;2.67;1.25;;;;;;;;;;4989974;28;20236;-66
2023/01/07 12:49:36;;;;;;;1.95;1.25;;;;;;;;;;4981429;28;20203;-66
2023/01/07 12:52:11;;;;;;;1.80;1.20;;;;;;;;;;4999461;28;20191;-66
2023/01/07 12:54:57;;;;;;;3.47;1.30;;;;;;;;;;4998611;28;20191;-66
2023/01/07 12:57:32;;;;;;;2.60;1.27;;;;;;;;;;4986609;28;20218;-66
2023/01/07 13:00:17;;;;;;;2.08;1.30;;;;;;;;;;4984738;28;20219;-67
2023/01/07 13:02:57;;;;;;;1.48;0.95;;;;;;;;;;4989468;28;20202;-67
2023/01/07 13:05:44;;;;;;;1.92;1.08;;;;;;;;;;4995116;28;20199;-66
2023/01/07 13:08:27;;;;;;;4.03;1.00;;;;;;;;;;4984576;28;20187;-67
2023/01/07 13:12:41;;;;;;;2.15;1.02;;;;;;;;;;4989925;28;20650;-66
2023/01/07 13:14:30;;;;;;;3.08;1.20;;;;;;;;;;4988493;28;20724;-66
2023/01/07 13:17:13;;;;;;;2.15;1.10;;;;;;;;;;4988770;28;20250;-66
2023/01/07 13:19:38;;;;;;;2.40;1.00;;;;;;;;;;4975151;28;20216;-67
2023/01/07 13:22:05;;;;;;;1.38;1.10;;;;;;;;;;4982788;28;20195;-67
2023/01/07 13:24:45;;;;;;;1.73;1.20;;;;;;;;;;4985026;28;20306;-67
2023/01/07 13:27:24;;;;;;;2.65;1.30;;;;;;;;;;4991039;28;20526;-67
2023/01/07 13:30:14;;;;;;;2.00;1.40;;;;;;;;;;5000449;28;20200;-68
2023/01/07 13:32:52;;;;;;;3.13;1.40;;;;;;;;;;4994637;28;20195;-67
2023/01/07 13:35:45;;;;;;;5.85;1.20;;;;;;;;;;4978588;28;20241;-66
2023/01/07 13:38:40;;;;;;;3.25;1.15;;;;;;;;;;5003037;28;20201;-67
2023/01/07 13:41:34;;;;;;;2.90;1.38;;;;;;;;;;4992687;28;20286;-67
2023/01/07 13:44:23;;;;;;;1.45;1.15;;;;;;;;;;4998455;28;20197;-66
2023/01/07 13:46:49;;;;;;;3.58;1.40;;;;;;;;;;4995654;28;20188;-66
2023/01/07 13:49:33;;;;;;;1.70;1.48;;;;;;;;;;4999625;28;20245;-66
2023/01/07 13:52:19;;;;;;;2.28;1.52;;;;;;;;;;4998285;28;20186;-66
2023/01/07 13:54:47;;;;;;;2.85;1.42;;;;;;;;;;5004471;28;20862;-67
2023/01/07 13:57:22;;;;;;;3.33;1.38;;;;;;;;;;4998253;28;20273;-66
2023/01/07 13:59:51;;;;;;;2.78;1.50;;;;;;;;;;5006099;28;20237;-66
2023/01/07 14:02:24;;;;;;;3.88;1.60;;;;;;;;;;4983572;28;20249;-66
2023/01/07 14:05:10;;;;;;;3.83;1.50;;;;;;;;;;4990650;28;20194;-66
2023/01/07 14:07:50;;;;;;;2.00;1.52;;;;;;;;;;4991582;28;20196;-66
2023/01/07 14:10:34;;;;;;;4.18;1.75;;;;;;;;;;4983501;28;20229;-66
2023/01/07 14:13:08;;;;;;;2.35;1.58;;;;;;;;;;4981571;28;20195;-65
2023/01/07 14:15:48;;;;;;;4.05;2.13;;;;;;;;;;4993261;28;20674;-66
2023/01/07 14:18:52;;;;;;;5.88;2.00;;;;;;;;;;4985005;28;20191;-66
2023/01/07 14:21:48;;;;;;;3.20;2.00;;;;;;;;;;4977908;28;20215;-66
2023/01/07 14:24:35;;;;;;;2.67;1.50;;;;;;;;;;4980360;28;20227;-66
2023/01/07 14:27:15;;;;;;;5.25;1.80;;;;;;;;;;4983173;28;20856;-66
2023/01/07 14:29:46;;;;;;;4.78;2.05;;;;;;;;;;4986231;28;20191;-66
2023/01/07 14:32:30;;;;;;;2.58;1.70;;;;;;;;;;4995111;28;20250;-66
2023/01/07 14:35:27;;;;;;;2.25;1.80;;;;;;;;;;4989090;28;20238;-66
2023/01/07 14:37:52;;;;;;;2.22;1.63;;;;;;;;;;4977811;28;20208;-66
2023/01/07 14:40:31;;;;;;;1.95;1.73;;;;;;;;;;4302005;28;10000802;-66
2023/01/07 14:43:35;;;;;;;2.80;1.92;;;;;;;;;;4988621;28;20256;-66
2023/01/07 14:46:01;;;;;;;4.78;2.15;;;;;;;;;;4997039;28;20681;-66
2023/01/07 14:48:31;;;;;;;3.35;1.75;;;;;;;;;;4984367;28;20183;-66
2023/01/07 14:51:22;;;;;;;2.95;1.67;;;;;;;;;;4990157;28;20207;-67
2023/01/07 14:54:24;;;;;;;2.58;1.60;;;;;;;;;;4988071;28;20200;-66
2023/01/07 14:57:00;;;;;;;2.80;1.48;;;;;;;;;;4992864;28;20217;-67
2023/01/07 14:59:47;;;;;;;4.28;1.67;;;;;;;;;;4994328;28;20194;-67
2023/01/07 15:02:49;;;;;;;2.50;1.70;;;;;;;;;;4984912;28;20207;-67